Time;durP1;ratioP1;P1;durP2;ratioP2;P2;SDS_P1;SDS_P2;PMS_P1;PMS_P2;Temp;Humidity;BMP_temperature;BMP_pressure;BME280_temperature;BME280_humidity;BME280_pressure;Samples;Min_cycle;Max_cycle;Signal;HPM_P1;HPM_P2
2022/11/13 00:00:55;;;;;;;11.97;8.03;;;4.30;99.90;;;;;;5074492;28;20218;-62
2022/11/13 00:03:22;;;;;;;12.07;8.57;;;4.30;99.90;;;;;;5075228;28;20224;-62
2022/11/13 00:05:58;;;;;;;13.97;9.17;;;4.40;99.90;;;;;;5076573;28;20697;-61
2022/11/13 00:08:25;;;;;;;11.93;9.23;;;4.40;99.90;;;;;;5076657;28;20224;-62
2022/11/13 00:10:52;;;;;;;12.07;8.17;;;4.30;99.90;;;;;;5076860;28;20201;-62
2022/11/13 00:13:18;;;;;;;11.93;7.80;;;4.30;99.90;;;;;;5076443;28;20205;-63
2022/11/13 00:15:45;;;;;;;8.80;7.20;;;4.30;99.90;;;;;;5073593;28;20204;-63
2022/11/13 00:18:12;;;;;;;12.53;7.63;;;4.30;99.90;;;;;;5074573;28;20320;-61
2022/11/13 00:20:39;;;;;;;10.50;7.50;;;4.30;99.90;;;;;;5073974;28;20209;-62
2022/11/13 00:23:07;;;;;;;8.87;7.20;;;4.30;99.90;;;;;;5073449;28;20704;-64
2022/11/13 00:25:35;;;;;;;9.37;7.13;;;4.20;99.90;;;;;;5073751;28;20205;-62
2022/11/13 00:28:02;;;;;;;12.30;8.07;;;4.10;99.90;;;;;;5073825;28;20221;-62
2022/11/13 00:30:28;;;;;;;11.20;7.43;;;4.20;99.90;;;;;;5073889;28;20209;-62
2022/11/13 00:32:55;;;;;;;9.53;7.03;;;4.20;99.90;;;;;;5074382;28;20201;-62
2022/11/13 00:35:22;;;;;;;9.00;7.10;;;4.20;99.90;;;;;;5073894;28;20200;-62
2022/11/13 00:37:48;;;;;;;9.10;6.67;;;4.20;99.90;;;;;;5084666;28;20243;-62
2022/11/13 00:40:17;;;;;;;10.33;7.33;;;4.20;99.90;;;;;;5093806;28;20209;-62
2022/11/13 00:42:44;;;;;;;8.90;6.87;;;4.20;99.90;;;;;;5091727;28;20205;-62
2022/11/13 00:45:10;;;;;;;10.27;7.30;;;4.20;99.90;;;;;;5093418;28;20212;-62
2022/11/13 00:47:37;;;;;;;10.33;7.10;;;4.20;99.90;;;;;;5093077;28;20247;-62
2022/11/13 00:50:04;;;;;;;10.97;6.70;;;4.20;99.90;;;;;;5091849;28;20205;-62
2022/11/13 00:52:31;;;;;;;9.50;7.43;;;4.20;99.90;;;;;;5090452;28;20215;-62
2022/11/13 00:54:58;;;;;;;8.57;6.73;;;4.20;99.90;;;;;;5092903;28;20197;-62
2022/11/13 00:57:26;;;;;;;9.23;6.70;;;4.30;99.90;;;;;;5090572;28;20237;-62
2022/11/13 00:59:53;;;;;;;9.43;6.83;;;4.30;99.90;;;;;;5086290;28;20215;-62
2022/11/13 01:02:19;;;;;;;8.50;7.03;;;4.30;99.90;;;;;;5079868;28;20209;-62
2022/11/13 01:04:46;;;;;;;9.97;6.77;;;4.30;99.90;;;;;;5075425;28;20229;-62
2022/11/13 01:07:13;;;;;;;7.90;6.73;;;4.30;99.90;;;;;;5075444;28;20229;-62
2022/11/13 01:09:39;;;;;;;9.77;7.53;;;4.30;99.90;;;;;;5076414;28;20201;-62
2022/11/13 01:12:06;;;;;;;8.83;7.10;;;4.30;99.90;;;;;;5078266;28;20669;-62
2022/11/13 01:14:34;;;;;;;8.23;6.33;;;4.30;99.90;;;;;;5077177;28;20683;-62
2022/11/13 01:17:01;;;;;;;8.17;6.50;;;4.30;99.90;;;;;;5074081;28;20224;-62
2022/11/13 01:19:28;;;;;;;13.17;6.80;;;4.30;99.90;;;;;;5073118;28;20715;-62
2022/11/13 01:21:54;;;;;;;8.27;6.00;;;4.30;99.90;;;;;;5072733;28;20224;-63
2022/11/13 01:24:21;;;;;;;8.97;6.77;;;4.20;99.90;;;;;;5073633;28;20224;-62
2022/11/13 01:26:48;;;;;;;7.87;6.17;;;4.20;99.90;;;;;;5073092;28;20730;-62
2022/11/13 01:29:15;;;;;;;9.23;6.27;;;4.30;99.90;;;;;;5073777;28;20217;-62
2022/11/13 01:31:43;;;;;;;7.60;5.80;;;4.30;99.90;;;;;;5073515;28;20216;-64
2022/11/13 01:34:09;;;;;;;9.57;6.37;;;4.40;99.90;;;;;;5076497;28;20212;-64
2022/11/13 01:36:36;;;;;;;7.40;5.87;;;4.40;99.90;;;;;;5077492;28;20209;-64
2022/11/13 01:39:03;;;;;;;17.50;8.00;;;4.50;99.90;;;;;;5106203;23;20234;-59
2022/11/13 01:41:32;;;;;;;15.70;7.63;;;4.50;99.90;;;;;;5090284;28;20544;-60
2022/11/13 01:44:00;;;;;;;13.67;7.93;;;4.60;99.90;;;;;;5094710;28;20228;-60
2022/11/13 01:46:30;;;;;;;18.10;8.20;;;4.60;99.90;;;;;;5095247;28;20212;-61
2022/11/13 01:49:04;;;;;;;15.20;8.40;;;4.70;99.90;;;;;;5096430;28;20224;-61
2022/11/13 01:51:34;;;;;;;12.27;8.07;;;4.70;99.90;;;;;;5094575;28;20318;-59
2022/11/13 01:54:04;;;;;;;16.17;8.07;;;4.80;99.90;;;;;;5097266;28;20211;-61
2022/11/13 01:56:31;;;;;;;15.53;8.87;;;4.80;99.90;;;;;;5099922;28;20287;-62
2022/11/13 01:59:05;;;;;;;16.83;8.67;;;4.80;99.90;;;;;;5099031;28;20760;-60
2022/11/13 02:01:31;;;;;;;13.80;8.70;;;4.80;99.90;;;;;;5098884;28;20295;-59
2022/11/13 02:04:00;;;;;;;12.77;8.53;;;4.80;99.90;;;;;;5099688;28;20268;-59
2022/11/13 02:06:31;;;;;;;12.17;8.23;;;4.80;99.90;;;;;;5099039;28;20337;-61
2022/11/13 02:08:59;;;;;;;10.20;7.80;;;4.80;99.90;;;;;;5098674;28;20719;-59
2022/11/13 02:11:25;;;;;;;9.80;8.00;;;4.90;99.90;;;;;;5098420;28;20200;-61
2022/11/13 02:13:53;;;;;;;10.60;8.17;;;4.90;99.90;;;;;;5098890;28;20238;-59
2022/11/13 02:16:22;;;;;;;10.27;8.23;;;4.90;99.90;;;;;;5098686;28;20204;-60
2022/11/13 02:18:49;;;;;;;10.50;7.87;;;4.90;99.90;;;;;;5098356;28;20234;-59
2022/11/13 02:21:27;;;;;;;9.33;8.13;;;4.90;99.90;;;;;;5098803;28;20743;-60
2022/11/13 02:24:00;;;;;;;8.53;7.57;;;4.90;99.90;;;;;;5097984;28;20303;-61
2022/11/13 02:26:31;;;;;;;12.77;8.77;;;4.90;99.90;;;;;;5098040;28;20212;-60
2022/11/13 02:28:58;;;;;;;10.53;8.37;;;4.90;99.90;;;;;;5098494;28;20569;-59
2022/11/13 02:31:25;;;;;;;13.17;9.20;;;4.90;99.90;;;;;;5097616;28;20293;-61
2022/11/13 02:33:52;;;;;;;16.30;10.20;;;4.90;99.90;;;;;;5097715;28;20608;-61
2022/11/13 02:36:22;;;;;;;23.73;10.17;;;5.00;99.90;;;;;;5098340;28;20660;-60
2022/11/13 02:38:52;;;;;;;15.03;7.50;;;5.00;99.90;;;;;;5097563;28;20231;-61
2022/11/13 02:41:19;;;;;;;18.77;8.20;;;5.00;99.90;;;;;;5097782;28;20294;-61
2022/11/13 02:43:47;;;;;;;19.73;8.07;;;5.00;99.90;;;;;;5097085;28;20228;-59
2022/11/13 02:46:14;;;;;;;17.93;9.17;;;5.10;99.90;;;;;;5098362;28;20251;-59
2022/11/13 02:48:41;;;;;;;21.73;8.87;;;5.10;99.90;;;;;;5097823;28;20273;-59
2022/11/13 02:51:08;;;;;;;20.83;8.30;;;5.10;99.90;;;;;;5097780;28;20266;-59
2022/11/13 02:53:35;;;;;;;24.00;8.67;;;5.10;99.90;;;;;;5096935;28;20269;-61
2022/11/13 02:56:02;;;;;;;23.40;8.93;;;5.20;99.90;;;;;;5097748;28;20235;-60
2022/11/13 02:58:29;;;;;;;64.57;10.60;;;5.20;99.90;;;;;;5097292;28;20220;-60
2022/11/13 03:00:57;;;;;;;24.27;8.87;;;5.20;99.90;;;;;;5097453;28;20652;-60
2022/11/13 03:03:24;;;;;;;51.43;9.20;;;5.20;99.90;;;;;;5096382;28;20874;-59
2022/11/13 03:05:51;;;;;;;53.00;9.67;;;5.00;99.90;;;;;;5096390;28;20675;-59
2022/11/13 03:08:18;;;;;;;18.70;8.70;;;4.80;99.90;;;;;;5097687;28;20315;-59
2022/11/13 03:10:45;;;;;;;16.53;8.50;;;4.80;99.90;;;;;;5097707;28;20240;-59
2022/11/13 03:13:12;;;;;;;25.90;8.23;;;4.90;99.90;;;;;;5097186;28;20208;-59
2022/11/13 03:15:39;;;;;;;21.77;8.20;;;4.80;99.90;;;;;;5096982;28;20717;-59
2022/11/13 03:18:08;;;;;;;34.67;8.70;;;4.70;99.90;;;;;;5097450;28;20232;-59
2022/11/13 03:20:36;;;;;;;22.40;8.40;;;4.60;99.90;;;;;;5097595;28;20315;-60
2022/11/13 03:23:04;;;;;;;18.73;8.30;;;4.60;99.90;;;;;;5097618;28;20566;-60
2022/11/13 03:25:31;;;;;;;21.73;8.33;;;4.70;99.90;;;;;;5097033;28;20318;-59
2022/11/13 03:27:58;;;;;;;42.70;9.30;;;4.70;99.90;;;;;;5097423;28;20621;-58
2022/11/13 03:30:26;;;;;;;23.47;7.10;;;4.80;99.90;;;;;;5099654;28;20234;-60
2022/11/13 03:32:53;;;;;;;36.10;8.20;;;4.90;99.90;;;;;;5097730;28;20230;-60
2022/11/13 03:35:22;;;;;;;37.60;9.33;;;5.00;99.90;;;;;;5098075;28;20253;-59
2022/11/13 03:37:50;;;;;;;23.27;8.13;;;5.00;99.90;;;;;;5097547;28;20232;-59
2022/11/13 03:40:18;;;;;;;27.13;7.83;;;5.00;99.90;;;;;;5097790;28;20702;-59
2022/11/13 03:42:45;;;;;;;46.30;8.40;;;5.00;99.90;;;;;;5097079;28;20208;-59
2022/11/13 03:45:12;;;;;;;66.00;8.67;;;5.10;99.90;;;;;;5097669;28;20290;-60
2022/11/13 03:47:39;;;;;;;51.47;8.97;;;5.10;99.90;;;;;;5097586;28;20220;-59
2022/11/13 03:50:06;;;;;;;30.77;7.40;;;5.20;99.90;;;;;;5096748;28;20200;-59
2022/11/13 03:52:34;;;;;;;49.60;8.00;;;5.30;99.90;;;;;;5095973;28;20212;-59
2022/11/13 03:55:01;;;;;;;31.20;8.33;;;5.30;99.90;;;;;;5096829;28;20200;-59
2022/11/13 03:57:28;;;;;;;33.17;8.67;;;5.20;99.90;;;;;;5098186;28;20224;-59
2022/11/13 03:59:55;;;;;;;21.17;7.40;;;5.20;99.90;;;;;;5098120;28;20231;-61
2022/11/13 04:02:22;;;;;;;29.87;8.03;;;5.20;99.90;;;;;;5096296;28;20239;-59
2022/11/13 04:04:49;;;;;;;28.10;7.10;;;5.30;99.90;;;;;;5096483;28;20703;-59
2022/11/13 04:07:16;;;;;;;24.93;7.50;;;5.40;99.90;;;;;;5097335;28;20232;-60
2022/11/13 04:09:45;;;;;;;33.00;8.57;;;5.40;99.90;;;;;;5097765;28;20250;-60
2022/11/13 04:12:12;;;;;;;43.07;8.27;;;5.40;99.90;;;;;;5097620;28;20208;-59
2022/11/13 04:14:39;;;;;;;23.07;7.13;;;5.40;99.90;;;;;;5098145;28;20193;-59
2022/11/13 04:17:06;;;;;;;23.87;7.53;;;5.40;99.90;;;;;;5097694;28;20203;-60
2022/11/13 04:19:33;;;;;;;28.83;8.00;;;5.40;99.90;;;;;;5097351;28;20204;-60
2022/11/13 04:22:00;;;;;;;37.03;7.30;;;5.40;99.90;;;;;;5096057;28;20234;-60
2022/11/13 04:24:27;;;;;;;15.03;6.77;;;5.40;99.90;;;;;;5095652;28;20220;-60
2022/11/13 04:26:55;;;;;;;29.70;7.20;;;5.40;99.90;;;;;;5095919;28;20204;-60
2022/11/13 04:29:22;;;;;;;24.57;6.90;;;5.20;99.90;;;;;;5096956;28;20208;-60
2022/11/13 04:31:49;;;;;;;29.07;7.13;;;5.20;99.90;;;;;;5095434;28;20668;-60
2022/11/13 04:34:16;;;;;;;38.00;7.57;;;5.30;99.90;;;;;;5096470;28;20326;-60
2022/11/13 04:36:43;;;;;;;23.40;7.27;;;5.30;99.90;;;;;;5096042;28;20286;-60
2022/11/13 04:39:10;;;;;;;33.20;7.37;;;5.30;99.90;;;;;;5095655;28;20262;-60
2022/11/13 04:44:23;;;;;;;38.20;7.97;;;5.30;99.90;;;;;;5095494;28;20223;-58
2022/11/13 04:46:50;;;;;;;23.40;7.63;;;5.30;99.90;;;;;;5095704;28;20293;-58
2022/11/13 04:49:17;;;;;;;22.83;7.07;;;5.30;99.90;;;;;;5096100;28;20224;-58
2022/11/13 04:51:44;;;;;;;31.70;7.47;;;5.20;99.90;;;;;;5096986;28;20292;-58
2022/11/13 04:54:11;;;;;;;39.23;7.40;;;5.20;99.90;;;;;;5095140;28;20200;-58
2022/11/13 04:56:38;;;;;;;28.40;6.77;;;4.90;99.90;;;;;;5095583;28;20204;-58
2022/11/13 04:59:05;;;;;;;35.93;6.13;;;4.70;99.90;;;;;;5095073;28;20235;-58
2022/11/13 05:01:34;;;;;;;29.27;6.50;;;4.40;99.90;;;;;;5095800;28;20204;-59
2022/11/13 05:04:01;;;;;;;25.40;6.60;;;4.40;99.90;;;;;;5095033;28;20204;-58
2022/11/13 05:06:29;;;;;;;56.53;7.60;;;4.50;99.90;;;;;;5095363;28;20203;-59
2022/11/13 05:08:56;;;;;;;77.67;6.60;;;4.70;99.90;;;;;;5095141;28;20767;-59
2022/11/13 05:11:23;;;;;;;41.63;5.77;;;4.80;99.90;;;;;;5096170;28;20325;-59
2022/11/13 05:13:50;;;;;;;115.70;8.57;;;4.80;99.90;;;;;;5095713;28;20212;-61
2022/11/13 05:16:17;;;;;;;134.60;10.07;;;4.80;99.90;;;;;;5096748;28;20204;-58
2022/11/13 05:18:45;;;;;;;110.00;9.20;;;4.90;99.90;;;;;;5095533;28;20220;-59
2022/11/13 05:21:12;;;;;;;144.13;10.47;;;4.90;99.90;;;;;;5096732;28;20732;-59
2022/11/13 05:23:39;;;;;;;121.63;9.40;;;4.80;99.90;;;;;;5096070;28;20219;-59
2022/11/13 05:26:09;;;;;;;75.63;8.30;;;4.80;99.90;;;;;;5096684;28;20593;-59
2022/11/13 05:28:36;;;;;;;77.37;8.47;;;4.70;99.90;;;;;;5096627;28;20598;-59
2022/11/13 05:31:05;;;;;;;124.57;9.50;;;4.70;99.90;;;;;;5097043;28;20204;-60
2022/11/13 05:33:32;;;;;;;42.10;9.27;;;4.80;99.90;;;;;;5096035;28;20261;-59
2022/11/13 05:36:05;;;;;;;60.67;8.50;;;4.90;99.90;;;;;;5096128;28;20580;-59
2022/11/13 05:38:32;;;;;;;118.83;9.80;;;4.80;99.90;;;;;;5095773;28;20273;-59
2022/11/13 05:41:04;;;;;;;48.70;7.93;;;4.90;99.90;;;;;;5096326;28;20642;-59
2022/11/13 05:43:31;;;;;;;38.50;8.30;;;4.90;99.90;;;;;;5095192;28;20212;-59
2022/11/13 05:46:02;;;;;;;57.90;8.83;;;5.00;99.90;;;;;;5096469;28;20660;-59
2022/11/13 05:48:29;;;;;;;34.13;7.40;;;5.00;99.90;;;;;;5095120;28;20609;-59
2022/11/13 05:51:03;;;;;;;59.47;7.37;;;5.10;99.90;;;;;;5095664;28;20211;-59
2022/11/13 05:53:32;;;;;;;48.53;7.80;;;5.10;99.90;;;;;;5094792;28;20226;-59
2022/11/13 05:56:01;;;;;;;47.47;7.67;;;5.10;99.90;;;;;;5095286;28;20564;-59
2022/11/13 05:58:28;;;;;;;42.90;7.33;;;5.10;99.90;;;;;;5094828;28;20782;-58
2022/11/13 06:01:06;;;;;;;33.17;6.80;;;5.10;99.90;;;;;;5094476;28;20347;-59
2022/11/13 06:03:33;;;;;;;51.57;7.70;;;5.10;99.90;;;;;;5093941;28;20235;-59
2022/11/13 06:06:00;;;;;;;54.57;7.67;;;5.10;99.90;;;;;;5093573;28;20711;-58
2022/11/13 06:08:29;;;;;;;38.27;6.53;;;5.10;99.90;;;;;;5093799;28;20236;-59
2022/11/13 06:10:59;;;;;;;37.90;6.03;;;5.20;99.90;;;;;;5094090;28;20216;-59
2022/11/13 06:13:26;;;;;;;24.73;6.37;;;5.20;99.90;;;;;;5094016;28;20213;-58
2022/11/13 06:15:54;;;;;;;41.33;7.40;;;5.30;99.90;;;;;;5096555;28;20204;-59
2022/11/13 06:18:24;;;;;;;46.47;7.47;;;5.30;99.90;;;;;;5096763;28;20228;-59
2022/11/13 06:20:51;;;;;;;31.77;6.63;;;5.20;99.90;;;;;;5096199;28;20227;-59
2022/11/13 06:23:18;;;;;;;22.80;9.47;;;5.20;99.90;;;;;;5095973;28;20299;-60
2022/11/13 06:25:47;;;;;;;18.03;6.53;;;5.20;99.90;;;;;;5094296;28;20220;-59
2022/11/13 06:28:13;;;;;;;33.90;6.30;;;5.20;99.90;;;;;;5093901;28;20224;-60
2022/11/13 06:30:40;;;;;;;18.10;6.87;;;5.20;99.90;;;;;;5093723;28;20611;-59
2022/11/13 06:33:07;;;;;;;17.23;9.93;;;5.20;99.90;;;;;;5093627;28;20216;-59
2022/11/13 06:35:34;;;;;;;23.23;6.63;;;5.20;99.90;;;;;;5093816;28;20230;-59
2022/11/13 06:38:01;;;;;;;22.53;6.40;;;5.20;99.90;;;;;;5093837;28;20804;-59
2022/11/13 06:40:29;;;;;;;37.13;7.07;;;5.20;99.90;;;;;;5093998;28;20211;-59
2022/11/13 06:42:57;;;;;;;57.43;7.50;;;5.10;99.90;;;;;;5097186;28;20204;-59
2022/11/13 06:45:24;;;;;;;65.70;7.53;;;5.10;99.90;;;;;;5098053;28;20605;-59
2022/11/13 06:47:53;;;;;;;55.07;6.97;;;5.20;99.90;;;;;;5097044;28;20316;-58
2022/11/13 06:50:20;;;;;;;21.53;8.17;;;5.20;99.90;;;;;;5097778;28;20204;-59
2022/11/13 06:52:47;;;;;;;20.03;6.77;;;5.00;99.90;;;;;;5097559;28;20206;-59
2022/11/13 06:55:14;;;;;;;48.80;7.43;;;5.00;99.90;;;;;;5097507;28;20203;-59
2022/11/13 06:57:41;;;;;;;35.13;6.70;;;5.00;99.90;;;;;;5097357;28;20306;-59
2022/11/13 07:00:11;;;;;;;52.73;6.87;;;5.10;99.90;;;;;;5097635;28;20208;-59
2022/11/13 07:02:38;;;;;;;48.00;7.20;;;5.20;99.90;;;;;;5096728;28;20238;-58
2022/11/13 07:05:05;;;;;;;32.63;11.23;;;5.10;99.90;;;;;;5097576;28;20322;-58
2022/11/13 07:07:32;;;;;;;22.73;6.63;;;5.10;99.90;;;;;;5097658;28;20231;-58
2022/11/13 07:09:59;;;;;;;44.00;6.47;;;5.20;99.90;;;;;;5097729;28;20208;-58
2022/11/13 07:12:28;;;;;;;66.97;7.63;;;5.20;99.90;;;;;;5097492;28;20214;-59
2022/11/13 07:14:55;;;;;;;22.97;11.90;;;5.20;99.90;;;;;;5098467;28;20730;-60
2022/11/13 07:17:23;;;;;;;26.63;6.20;;;5.20;99.90;;;;;;5097500;28;20220;-59
2022/11/13 07:19:50;;;;;;;53.50;7.37;;;5.30;99.90;;;;;;5098015;28;20211;-59
2022/11/13 07:22:17;;;;;;;45.73;11.03;;;5.30;99.90;;;;;;5097018;28;20228;-60
2022/11/13 07:24:44;;;;;;;50.57;6.60;;;5.30;99.90;;;;;;5096797;28;20204;-60
2022/11/13 07:27:10;;;;;;;31.30;5.60;;;5.30;99.90;;;;;;5096706;28;20208;-60
2022/11/13 07:29:37;;;;;;;37.97;5.63;;;5.10;99.90;;;;;;5097383;28;20204;-60
2022/11/13 07:32:05;;;;;;;34.10;6.33;;;5.00;99.90;;;;;;5096786;28;20272;-60
2022/11/13 07:34:33;;;;;;;45.37;5.93;;;4.90;99.90;;;;;;5097047;28;20232;-59
2022/11/13 07:37:00;;;;;;;31.83;6.17;;;4.90;99.90;;;;;;5096646;28;20602;-59
2022/11/13 07:39:27;;;;;;;28.13;5.33;;;4.90;99.90;;;;;;5100859;22;20228;-63
2022/11/13 07:41:54;;;;;;;33.37;5.60;;;4.90;99.90;;;;;;5093689;28;20196;-63
2022/11/13 07:44:20;;;;;;;23.63;6.10;;;5.00;99.90;;;;;;5093688;28;20208;-62
2022/11/13 07:46:47;;;;;;;29.73;6.00;;;5.00;99.90;;;;;;5093932;28;20224;-62
2022/11/13 07:49:14;;;;;;;21.17;6.77;;;5.00;99.90;;;;;;5094165;28;20220;-62
2022/11/13 07:51:42;;;;;;;26.90;6.37;;;5.10;99.90;;;;;;5093697;28;20200;-62
2022/11/13 07:54:09;;;;;;;12.63;6.10;;;5.10;99.90;;;;;;5093282;28;20204;-62
2022/11/13 07:56:35;;;;;;;24.30;6.50;;;5.20;99.90;;;;;;5093789;28;20207;-62
2022/11/13 07:59:02;;;;;;;24.57;8.30;;;5.30;99.90;;;;;;5094266;28;20221;-62
2022/11/13 08:01:29;;;;;;;22.90;6.13;;;5.30;99.90;;;;;;5094248;28;20211;-63
2022/11/13 08:03:55;;;;;;;36.37;9.80;;;5.50;99.90;;;;;;5093257;28;20687;-62
2022/11/13 08:06:23;;;;;;;27.47;6.87;;;5.60;99.90;;;;;;5093615;28;20227;-63
2022/11/13 08:08:51;;;;;;;29.40;5.80;;;5.80;99.90;;;;;;5094321;28;20224;-63
2022/11/13 08:11:17;;;;;;;17.70;6.37;;;5.90;99.90;;;;;;5093895;28;20668;-63
2022/11/13 08:13:44;;;;;;;26.57;5.90;;;6.00;99.90;;;;;;5093225;28;20209;-66
2022/11/13 08:16:11;;;;;;;26.77;6.03;;;5.90;99.90;;;;;;5093796;28;20204;-63
2022/11/13 08:18:38;;;;;;;29.37;5.90;;;6.00;99.90;;;;;;5093378;28;20231;-63
2022/11/13 08:21:05;;;;;;;35.53;6.30;;;6.10;99.90;;;;;;5093273;28;20231;-64
2022/11/13 08:23:32;;;;;;;38.57;6.17;;;6.30;99.90;;;;;;5092734;28;20673;-62
2022/11/13 08:26:04;;;;;;;25.07;8.43;;;6.10;99.90;;;;;;5093569;28;20235;-67
2022/11/13 08:28:31;;;;;;;57.70;7.00;;;5.80;99.90;;;;;;5093669;28;20719;-62
2022/11/13 08:30:58;;;;;;;34.10;6.30;;;6.00;99.90;;;;;;5093756;28;20207;-63
2022/11/13 08:33:24;;;;;;;41.53;6.40;;;6.10;99.90;;;;;;5093964;28;20546;-63
2022/11/13 08:35:55;;;;;;;41.63;6.67;;;6.20;99.90;;;;;;5094587;28;20196;-63
2022/11/13 08:38:23;;;;;;;17.13;6.27;;;6.30;99.90;;;;;;5096708;28;20315;-63
2022/11/13 08:40:50;;;;;;;20.77;6.30;;;6.50;99.90;;;;;;5099979;28;20333;-63
2022/11/13 08:43:19;;;;;;;17.67;6.20;;;6.80;99.90;;;;;;5099215;28;20230;-63
2022/11/13 08:45:46;;;;;;;17.40;6.27;;;6.90;99.90;;;;;;5096397;28;20281;-64
2022/11/13 08:48:13;;;;;;;43.43;6.53;;;7.10;99.90;;;;;;5093806;28;20224;-64
2022/11/13 08:50:40;;;;;;;15.47;6.83;;;7.10;99.90;;;;;;5094013;28;20684;-63
2022/11/13 08:53:07;;;;;;;9.97;6.20;;;6.90;99.90;;;;;;5093257;28;20209;-62
2022/11/13 08:55:35;;;;;;;12.23;7.37;;;6.90;99.90;;;;;;5093600;28;20248;-62
2022/11/13 08:58:03;;;;;;;11.97;6.93;;;7.10;99.90;;;;;;5093012;28;20711;-63
2022/11/13 09:00:32;;;;;;;8.17;5.73;;;7.20;99.90;;;;;;5093011;28;20204;-63
2022/11/13 09:03:00;;;;;;;11.90;5.77;;;7.20;99.90;;;;;;5091676;28;20208;-63
2022/11/13 09:05:27;;;;;;;13.60;5.60;;;7.30;99.90;;;;;;5093296;28;20231;-64
2022/11/13 09:07:56;;;;;;;7.17;5.27;;;7.10;99.90;;;;;;5092845;28;20593;-64
2022/11/13 09:10:22;;;;;;;14.87;5.37;;;7.00;99.90;;;;;;5092828;28;20203;-64
2022/11/13 09:12:49;;;;;;;8.43;5.37;;;6.90;99.90;;;;;;5092349;28;20219;-63
2022/11/13 09:15:16;;;;;;;6.73;5.43;;;6.80;99.90;;;;;;5092895;28;20212;-63
2022/11/13 09:17:44;;;;;;;10.67;6.73;;;6.90;99.90;;;;;;5092667;28;20220;-63
2022/11/13 09:20:11;;;;;;;7.20;5.13;;;7.10;99.90;;;;;;5093201;28;20211;-65
2022/11/13 09:22:38;;;;;;;6.33;5.40;;;7.30;99.90;;;;;;5092499;28;20204;-63
2022/11/13 09:25:05;;;;;;;6.50;5.30;;;7.30;99.90;;;;;;5094214;28;20690;-63
2022/11/13 09:27:32;;;;;;;5.80;5.20;;;7.60;99.90;;;;;;5094572;28;20686;-63
2022/11/13 09:29:59;;;;;;;7.07;4.67;;;7.60;99.90;;;;;;5094704;28;20204;-64
2022/11/13 09:32:25;;;;;;;8.67;5.27;;;7.80;99.90;;;;;;5093974;28;20211;-63
2022/11/13 09:34:54;;;;;;;10.77;5.30;;;8.10;99.90;;;;;;5093398;28;20287;-63
2022/11/13 09:37:20;;;;;;;7.57;6.03;;;8.40;99.90;;;;;;5093097;28;20212;-65
2022/11/13 09:39:47;;;;;;;12.97;6.83;;;8.60;99.90;;;;;;5093100;28;20215;-63
2022/11/13 09:42:18;;;;;;;7.57;6.03;;;8.70;99.90;;;;;;5092381;28;20200;-63
2022/11/13 09:44:48;;;;;;;6.83;5.17;;;8.60;99.90;;;;;;5092394;28;20200;-65
2022/11/13 09:47:20;;;;;;;6.23;5.57;;;8.30;99.90;;;;;;5093202;28;20230;-63
2022/11/13 09:49:51;;;;;;;9.83;5.43;;;8.00;99.90;;;;;;5093395;28;20600;-63
2022/11/13 09:52:25;;;;;;;9.87;6.20;;;8.10;99.90;;;;;;5092351;28;20219;-65
2022/11/13 09:54:51;;;;;;;7.47;5.83;;;8.30;99.90;;;;;;5092758;28;20215;-64
2022/11/13 09:57:27;;;;;;;8.77;7.10;;;8.60;99.90;;;;;;5092441;28;20202;-64
2022/11/13 10:00:00;;;;;;;11.07;5.80;;;8.90;99.90;;;;;;5092281;28;20204;-64
2022/11/13 10:02:37;;;;;;;7.80;6.40;;;9.10;99.90;;;;;;5092108;28;20220;-64
2022/11/13 10:05:12;;;;;;;7.40;5.73;;;9.40;99.90;;;;;;5093584;28;20215;-63
2022/11/13 10:07:48;;;;;;;8.80;6.60;;;9.70;99.90;;;;;;5094502;28;20608;-63
2022/11/13 10:10:44;;;;;;;7.03;6.17;;;9.70;99.90;;;;;;5095158;28;20204;-63
2022/11/13 10:13:15;;;;;;;6.87;5.73;;;9.70;99.90;;;;;;5092459;28;20208;-64
2022/11/13 10:15:43;;;;;;;8.20;6.63;;;9.40;99.90;;;;;;5097587;28;20201;-63
2022/11/13 10:18:15;;;;;;;7.90;6.30;;;9.30;99.90;;;;;;5099350;28;20639;-63
2022/11/13 10:20:47;;;;;;;6.50;5.90;;;9.10;99.90;;;;;;5099521;28;20204;-63
2022/11/13 10:23:19;;;;;;;9.63;7.93;;;9.10;99.90;;;;;;5097984;28;20271;-64
2022/11/13 10:25:47;;;;;;;12.57;8.93;;;9.20;99.90;;;;;;5104152;28;20231;-64
2022/11/13 10:28:17;;;;;;;6.10;5.50;;;9.30;99.90;;;;;;5102901;28;20239;-64
2022/11/13 10:30:45;;;;;;;6.07;5.43;;;9.40;99.90;;;;;;5103876;28;20282;-65
2022/11/13 10:33:16;;;;;;;6.53;5.90;;;9.60;99.90;;;;;;5103089;28;20209;-64
2022/11/13 10:35:55;;;;;;;6.67;5.97;;;9.70;99.90;;;;;;5104256;28;20212;-62
2022/11/13 10:38:30;;;;;;;5.30;4.80;;;9.80;99.90;;;;;;5102435;28;20242;-64
2022/11/13 10:41:06;;;;;;;6.63;5.93;;;9.90;99.90;;;;;;5100947;28;20208;-63
2022/11/13 10:43:33;;;;;;;6.50;5.90;;;9.90;99.90;;;;;;5096461;28;20226;-63
2022/11/13 10:46:02;;;;;;;6.67;5.97;;;9.80;99.90;;;;;;5098279;28;20220;-64
2022/11/13 10:48:31;;;;;;;7.03;6.33;;;10.00;99.90;;;;;;5097582;28;20224;-64
2022/11/13 10:51:00;;;;;;;5.70;5.10;;;10.30;99.90;;;;;;5096921;28;20208;-64
2022/11/13 10:53:37;;;;;;;6.83;6.10;;;10.30;99.90;;;;;;5098357;28;20692;-65
2022/11/13 10:56:14;;;;;;;9.50;6.87;;;10.00;99.90;;;;;;5098531;28;20200;-63
2022/11/13 10:58:40;;;;;;;7.60;6.77;;;10.10;99.90;;;;;;5098012;28;20285;-63
2022/11/13 11:01:15;;;;;;;7.82;7.03;;;10.10;99.90;;;;;;5088351;28;20519;-67
2022/11/13 11:03:49;;;;;;;7.37;6.57;;;10.10;99.90;;;;;;5075119;28;20196;-67
2022/11/13 11:06:15;;;;;;;7.43;6.60;;;10.30;99.90;;;;;;5088224;28;20205;-67
2022/11/13 11:08:44;;;;;;;8.10;6.03;;;10.40;99.90;;;;;;5096559;28;20227;-66
2022/11/13 11:14:19;;;;;;;7.47;6.67;;;10.80;99.90;;;;;;5075670;28;20223;-68
2022/11/13 11:16:48;;;;;;;7.63;6.73;;;11.10;99.90;;;;;;5077633;28;20201;-67
2022/11/13 11:19:16;;;;;;;7.10;6.40;;;11.30;99.90;;;;;;5078506;28;20265;-69
2022/11/13 11:21:44;;;;;;;7.57;6.33;;;11.30;99.90;;;;;;5084272;28;20205;-68
2022/11/13 11:24:15;;;;;;;7.40;6.60;;;11.30;99.90;;;;;;5089461;28;20211;-66
2022/11/13 11:26:46;;;;;;;6.80;6.13;;;11.50;99.90;;;;;;5087369;28;20229;-66
2022/11/13 11:29:19;;;;;;;6.90;6.20;;;11.60;99.90;;;;;;5088151;28;20371;-66
2022/11/13 11:31:51;;;;;;;7.53;6.63;;;11.70;99.90;;;;;;5086842;28;20213;-66
2022/11/13 11:34:23;;;;;;;6.97;6.27;;;11.70;99.90;;;;;;5086041;28;20209;-67
2022/11/13 11:36:58;;;;;;;7.23;6.53;;;11.50;99.90;;;;;;5087613;28;20274;-67
2022/11/13 11:39:35;;;;;;;6.80;6.10;;;11.60;99.90;;;;;;5088263;28;20235;-65
2022/11/13 11:42:12;;;;;;;7.10;6.40;;;11.60;99.90;;;;;;5083019;28;20208;-66
2022/11/13 11:44:49;;;;;;;6.70;6.00;;;11.60;99.90;;;;;;5084320;28;20207;-66
2022/11/13 11:47:17;;;;;;;7.80;7.00;;;11.50;99.90;;;;;;5087263;28;20219;-66
2022/11/13 11:49:45;;;;;;;7.07;6.37;;;11.30;99.90;;;;;;5087708;28;20558;-66
2022/11/13 11:52:35;;;;;;;9.33;7.63;;;11.00;99.90;;;;;;5079358;28;20629;-66
2022/11/13 11:55:16;;;;;;;8.07;7.10;;;10.90;99.90;;;;;;5084850;28;20215;-66
2022/11/13 11:57:53;;;;;;;7.77;6.97;;;10.80;99.90;;;;;;5088137;28;20225;-65
2022/11/13 12:00:21;;;;;;;10.07;9.07;;;10.60;99.90;;;;;;5085825;28;20287;-65
2022/11/13 12:03:27;;;;;;;8.03;7.23;;;10.80;99.90;;;;;;5086111;28;20684;-67
2022/11/13 12:06:06;;;;;;;8.00;7.23;;;11.00;99.90;;;;;;5059500;28;20204;-68
2022/11/13 12:08:40;;;;;;;8.60;7.70;;;11.10;99.90;;;;;;5085072;28;20224;-68
2022/11/13 12:11:18;;;;;;;8.17;7.00;;;11.00;99.90;;;;;;5084920;28;20230;-67
2022/11/13 12:13:54;;;;;;;7.70;6.93;;;10.60;99.90;;;;;;5084948;28;20227;-67
2022/11/13 12:16:27;;;;;;;8.23;7.03;;;10.00;99.90;;;;;;5085278;28;20211;-67
2022/11/13 12:19:02;;;;;;;15.53;13.60;;;9.70;99.90;;;;;;5086184;28;20224;-67
2022/11/13 12:21:43;;;;;;;12.67;10.53;;;9.70;99.90;;;;;;5086746;28;20232;-65
2022/11/13 12:24:37;;;;;;;8.73;7.83;;;9.80;99.90;;;;;;5086495;28;20211;-64
2022/11/13 12:27:18;;;;;;;8.57;7.30;;;10.00;99.90;;;;;;5085881;28;20589;-64
2022/11/13 12:29:58;;;;;;;8.43;7.50;;;10.20;99.90;;;;;;5087506;28;20216;-65
2022/11/13 12:32:39;;;;;;;8.23;7.43;;;10.30;99.90;;;;;;5085454;28;20224;-64
2022/11/13 12:35:11;;;;;;;7.70;7.00;;;10.40;99.90;;;;;;5085460;28;20208;-65
2022/11/13 12:37:46;;;;;;;7.90;7.20;;;10.30;99.90;;;;;;5084218;28;20308;-65
2022/11/13 12:40:21;;;;;;;8.00;7.20;;;10.10;99.90;;;;;;5085010;28;20203;-63
2022/11/13 12:42:55;;;;;;;8.33;7.43;;;10.10;99.90;;;;;;5080833;28;20208;-66
2022/11/13 12:45:32;;;;;;;9.23;8.13;;;10.20;99.90;;;;;;5085262;28;20204;-67
2022/11/13 12:48:08;;;;;;;8.30;7.03;;;10.40;99.90;;;;;;5084764;28;20699;-65
2022/11/13 12:50:35;;;;;;;8.07;7.27;;;10.50;99.90;;;;;;5083887;28;20207;-65
2022/11/13 12:53:10;;;;;;;8.40;7.60;;;10.60;99.90;;;;;;5084096;28;20209;-65
2022/11/13 12:55:39;;;;;;;8.77;7.50;;;10.70;99.90;;;;;;5085043;28;20207;-66
2022/11/13 12:58:10;;;;;;;8.50;7.60;;;10.90;99.90;;;;;;5085242;28;20217;-66
2022/11/13 13:00:41;;;;;;;8.90;8.00;;;11.00;99.90;;;;;;5084277;28;20200;-65
2022/11/13 13:03:27;;;;;;;9.87;7.03;;;11.10;99.90;;;;;;5084407;28;20208;-65